King, WI

6:46 AM CDT on August 28, 2014 (GMT -0500)
APRSWXNET Waupaca WI US | Change Station
CLOSE
Current Station
Personal Weather Station
Location: King, WI
Elevation: 889 ft
Nearby Weather Stations

Elev 889 ft 44.34 °N, 89.12 °W | Updated 46 minutes ago

Overcast
Overcast
58 °F
Feels Like 58 °F
N
0
Wind Variable Wind from NNW
Gusts 0.0 mph

Today
High -- | Low -- °F
--% Chance of Precip.
Yesterday
High -- | Low -- °F
Precip. -- in
6:14 AM 7:39 PM
Waxing Crescent, 8% visible
Pressure 30.15 in
Visibility 10.0 miles
Clouds Overcast 500 ft
Dew Point 57 °F
Humidity 97%
Rainfall 0.00 in
Snow Depth Not available.
UV 0 out of 12
Pollen 8.90 out of 12
Air Quality Not available.
Flu Activity Not available.
METAR KPCZ 281135Z AUTO 00000KT 10SM OVC005 16/16 A3015 RMK AO2 T01630155

More Conditions Fewer Conditions

Pressure 30.15 in
Visibility 10.0 miles
Clouds Overcast 500 ft
Dew Point 57 °F
Humidity 97%
Rainfall 0.00 in
Snow Depth Not available.
UV 0 out of 12
Pollen 8.90 out of 12
Air Quality Not available.
Flu Activity Not available.
METAR KPCZ 281135Z AUTO 00000KT 10SM OVC005 16/16 A3015 RMK AO2 T01630155

More Conditions Fewer Conditions

10-Day Weather Forecast

Almanac

Astronomy

Aug. 28, 2014 Rise Set
Actual Time 6:14 AM CDT 7:39 PM CDT
Civil Twilight 5:44 AM CDT 8:09 PM CDT
Nautical Twilight 5:07 AM CDT 8:46 PM CDT
Astronomical Twilight 4:28 AM CDT 9:25 PM CDT
Moon 9:15 AM CDT 8:54 PM CDT
Length of Visible Light 14h 25m
Length of Day
13h 25m
Tomorrow will be 2m 55s shorter.
Waxing Crescent, 8% of the Moon is Illuminated
Today
Waxing Crescent
Sep 2
First Quarter
Sep 8
Full
Sep 15
Last Quarter
Sep 24
New

Today's Extremes

State Highs State Lows

Community

WunderPhotos

Upload Photos

1,747,929 photos uploaded!

Nearby

Snow Depth

Station Depth Elevation
No new snow has been reported.

Earthquake Activity

City Distance Mag. Time & Date
No recent earthquake activity has been reported nearby.
Minimum magnitude displayed is 2.5.

Coastal Water Temperatures

Place Temperature
No Stations Reporting

Nearby Weather Stations